createdAt,value
2022-08-28T00:00:15.511Z,80.90
2022-08-28T00:02:42.934Z,81.25
2022-08-28T00:05:11.751Z,80.67
2022-08-28T00:07:38.836Z,81.01
2022-08-28T00:10:07.476Z,80.77
2022-08-28T00:12:35.628Z,81.00
2022-08-28T00:15:03.630Z,80.51
2022-08-28T00:17:30.287Z,80.66
2022-08-28T00:19:56.997Z,80.74
2022-08-28T00:22:23.724Z,80.77
2022-08-28T00:24:50.366Z,80.66
2022-08-28T00:27:40.056Z,80.64
2022-08-28T00:30:07.337Z,80.97
2022-08-28T00:32:35.627Z,80.56
2022-08-28T00:35:03.010Z,80.70
2022-08-28T00:37:29.692Z,80.89
2022-08-28T00:39:56.407Z,80.81
2022-08-28T00:42:23.065Z,80.67
2022-08-28T00:44:49.722Z,80.80
2022-08-28T00:47:16.402Z,80.40
2022-08-28T00:49:49.861Z,80.83
2022-08-28T00:52:17.364Z,80.68
2022-08-28T00:54:59.058Z,80.87
2022-08-28T00:57:32.355Z,80.84
2022-08-28T00:59:59.103Z,81.18
2022-08-28T01:02:26.664Z,80.87
2022-08-28T01:04:53.845Z,80.87
2022-08-28T01:07:23.281Z,81.39
2022-08-28T01:09:53.505Z,80.74
2022-08-28T01:12:25.039Z,81.27
2022-08-28T01:14:53.679Z,81.17
2022-08-28T01:17:23.683Z,81.01
2022-08-28T01:19:58.351Z,80.97
2022-08-28T01:22:33.646Z,80.83
2022-08-28T01:25:01.171Z,81.42
2022-08-28T01:27:28.258Z,81.10
2022-08-28T01:29:55.358Z,80.94
2022-08-28T01:32:40.931Z,81.43
2022-08-28T01:35:11.531Z,81.53
2022-08-28T01:37:38.636Z,81.14
2022-08-28T01:40:06.783Z,81.49
2022-08-28T01:42:39.313Z,81.08
2022-08-28T01:45:08.107Z,81.35
2022-08-28T01:47:34.733Z,81.16
2022-08-28T01:50:01.543Z,80.73
2022-08-28T01:52:29.007Z,80.69
2022-08-28T01:54:55.862Z,80.97
2022-08-28T01:57:24.752Z,81.05
2022-08-28T01:59:51.830Z,81.25
2022-08-28T02:02:18.640Z,81.44
2022-08-28T02:04:48.063Z,81.48
2022-08-28T02:07:16.925Z,80.96
2022-08-28T02:09:43.735Z,80.87
2022-08-28T02:12:10.416Z,80.72
2022-08-28T02:14:38.695Z,81.16
2022-08-28T02:17:05.381Z,80.74
2022-08-28T02:19:32.271Z,80.60
2022-08-28T02:21:58.958Z,80.34
2022-08-28T02:24:25.678Z,80.90
2022-08-28T02:26:52.327Z,80.64
2022-08-28T02:29:19.001Z,80.35
2022-08-28T02:31:45.679Z,80.46
2022-08-28T02:34:12.302Z,80.43
2022-08-28T02:36:42.725Z,80.44
2022-08-28T02:39:09.803Z,80.27
2022-08-28T02:41:36.635Z,79.95
2022-08-28T02:44:03.778Z,80.27
2022-08-28T02:46:30.566Z,80.38
2022-08-28T02:48:57.278Z,79.91
2022-08-28T02:51:24.754Z,80.00
2022-08-28T02:53:52.250Z,80.15
2022-08-28T02:56:19.284Z,79.78
2022-08-28T02:58:45.967Z,79.93
2022-08-28T03:01:13.500Z,79.81
2022-08-28T03:03:41.635Z,79.33
2022-08-28T03:06:09.536Z,79.66
2022-08-28T03:08:36.409Z,79.46
2022-08-28T03:11:03.314Z,79.42
2022-08-28T03:13:30.680Z,79.15
2022-08-28T03:15:57.811Z,79.00
2022-08-28T03:18:25.653Z,79.01
2022-08-28T03:20:53.582Z,79.24
2022-08-28T03:23:29.143Z,78.81
2022-08-28T03:26:07.407Z,79.28
2022-08-28T03:28:39.123Z,79.38
2022-08-28T03:31:10.487Z,79.44
2022-08-28T03:33:37.475Z,79.37
2022-08-28T03:36:10.333Z,79.46
2022-08-28T03:38:37.004Z,79.59
2022-08-28T03:41:03.690Z,79.14
2022-08-28T03:43:30.461Z,79.06
2022-08-28T03:46:02.666Z,79.70
2022-08-28T03:48:34.882Z,79.65
2022-08-28T03:51:01.813Z,78.93
2022-08-28T03:53:29.747Z,78.96
2022-08-28T03:55:57.544Z,79.22
2022-08-28T03:58:24.402Z,79.00
2022-08-28T04:00:51.171Z,79.18
2022-08-28T04:03:18.281Z,79.06
2022-08-28T04:05:45.925Z,78.74
2022-08-28T04:08:16.004Z,79.04
2022-08-28T04:10:46.008Z,79.14
2022-08-28T04:13:13.697Z,78.84
2022-08-28T04:15:41.527Z,79.06
2022-08-28T04:18:09.113Z,79.21
2022-08-28T04:20:36.402Z,79.37
2022-08-28T04:23:04.072Z,79.33
2022-08-28T04:25:31.496Z,78.90
2022-08-28T04:27:58.262Z,78.96
2022-08-28T04:30:25.168Z,79.09
2022-08-28T04:32:51.823Z,78.92
2022-08-28T04:35:18.430Z,78.86
2022-08-28T04:37:45.074Z,79.16
2022-08-28T04:40:13.297Z,78.70
2022-08-28T04:42:40.425Z,77.80
2022-08-28T04:45:07.763Z,78.57
2022-08-28T04:47:38.876Z,78.20
2022-08-28T04:50:07.482Z,78.24
2022-08-28T04:52:34.448Z,78.00
2022-08-28T04:55:01.615Z,78.45
2022-08-28T04:57:28.335Z,77.90
2022-08-28T04:59:54.964Z,77.66
2022-08-28T05:02:21.695Z,77.82
2022-08-28T05:04:48.432Z,77.45
2022-08-28T05:07:15.085Z,77.34
2022-08-28T05:09:41.844Z,77.67
2022-08-28T05:12:08.569Z,77.28
2022-08-28T05:14:36.615Z,77.74
2022-08-28T05:17:03.290Z,77.17
2022-08-28T05:19:29.927Z,77.59
2022-08-28T05:21:56.725Z,77.39
2022-08-28T05:24:23.475Z,77.53
2022-08-28T05:26:50.220Z,77.42
2022-08-28T05:29:17.487Z,77.48
2022-08-28T05:31:44.559Z,76.98
2022-08-28T05:34:13.359Z,77.23
2022-08-28T05:36:40.255Z,77.02
2022-08-28T05:39:09.893Z,76.37
2022-08-28T05:41:37.360Z,77.09
2022-08-28T05:44:07.374Z,76.88
2022-08-28T05:46:36.527Z,77.25
2022-08-28T05:49:07.724Z,76.28
2022-08-28T05:51:37.141Z,76.25
2022-08-28T05:54:04.257Z,76.33
2022-08-28T05:56:34.614Z,76.40
2022-08-28T05:59:02.132Z,76.50
2022-08-28T06:01:33.794Z,76.91
2022-08-28T06:04:03.684Z,76.20
2022-08-28T06:06:34.246Z,76.23
2022-08-28T06:09:03.711Z,76.58
2022-08-28T06:11:31.270Z,76.23
2022-08-28T06:14:04.551Z,75.94
2022-08-28T06:16:32.536Z,76.20
2022-08-28T06:19:00.511Z,76.21
2022-08-28T06:21:27.752Z,75.86
2022-08-28T06:23:54.425Z,75.73
2022-08-28T06:26:21.045Z,76.04
2022-08-28T06:28:47.754Z,76.25
2022-08-28T06:31:24.529Z,75.79
2022-08-28T06:33:57.292Z,75.48
2022-08-28T06:36:27.565Z,76.05
2022-08-28T06:38:58.084Z,75.62
2022-08-28T06:41:25.687Z,75.72
2022-08-28T06:43:52.350Z,75.69
2022-08-28T06:46:19.060Z,75.66
2022-08-28T06:48:46.011Z,75.73
2022-08-28T06:51:12.984Z,75.65
2022-08-28T06:53:41.588Z,75.73
2022-08-28T06:56:25.441Z,75.66
2022-08-28T06:58:52.698Z,76.17
2022-08-28T07:01:31.743Z,76.17
2022-08-28T07:04:01.272Z,76.14
2022-08-28T07:06:34.668Z,76.00
2022-08-28T07:09:02.194Z,75.27
2022-08-28T07:11:31.451Z,75.21
2022-08-28T07:13:58.597Z,75.45
2022-08-28T07:16:28.402Z,75.42
2022-08-28T07:18:55.343Z,75.61
2022-08-28T07:21:22.141Z,75.27
2022-08-28T07:23:49.275Z,75.55
2022-08-28T07:26:22.824Z,75.05
2022-08-28T07:28:50.832Z,75.09
2022-08-28T07:31:26.157Z,75.16
2022-08-28T07:33:56.193Z,75.71
2022-08-28T07:36:28.778Z,75.78
2022-08-28T07:38:59.226Z,75.22
2022-08-28T07:41:30.693Z,75.12
2022-08-28T07:44:16.103Z,75.34
2022-08-28T07:46:43.434Z,75.08
2022-08-28T07:49:10.690Z,75.13
2022-08-28T07:51:37.823Z,75.18
2022-08-28T07:54:05.027Z,75.30
2022-08-28T07:56:31.748Z,74.77
2022-08-28T07:58:59.539Z,75.18
2022-08-28T08:01:27.763Z,75.01
2022-08-28T08:04:01.125Z,74.84
2022-08-28T08:06:34.109Z,75.16
2022-08-28T08:09:01.936Z,75.32
2022-08-28T08:11:32.278Z,75.27
2022-08-28T08:14:04.719Z,75.14
2022-08-28T08:16:34.968Z,75.33
2022-08-28T08:19:02.156Z,74.48
2022-08-28T08:21:30.421Z,75.30
2022-08-28T08:23:57.346Z,75.03
2022-08-28T08:26:26.298Z,74.90
2022-08-28T08:28:52.949Z,75.01
2022-08-28T08:31:33.181Z,75.18
2022-08-28T08:34:03.575Z,74.98
2022-08-28T08:36:32.323Z,74.55
2022-08-28T08:39:00.314Z,74.66
2022-08-28T08:41:47.924Z,74.38
2022-08-28T08:44:21.242Z,74.51
2022-08-28T08:47:16.219Z,74.17
2022-08-28T08:50:00.487Z,74.87
2022-08-28T08:52:45.685Z,74.36
2022-08-28T08:55:27.422Z,74.61
2022-08-28T08:58:32.382Z,74.33
2022-08-28T09:01:09.698Z,74.42
2022-08-28T09:04:15.828Z,74.33
2022-08-28T09:06:50.834Z,73.73
2022-08-28T09:09:20.621Z,73.75
2022-08-28T09:11:56.957Z,73.72
2022-08-28T09:14:33.000Z,73.13
2022-08-28T09:17:00.995Z,72.86
2022-08-28T09:19:27.716Z,72.67
2022-08-28T09:21:54.673Z,72.60
2022-08-28T09:24:32.325Z,72.66
2022-08-28T09:27:14.184Z,72.26
2022-08-28T09:29:46.371Z,72.33
2022-08-28T09:32:21.995Z,71.63
2022-08-28T09:35:19.259Z,72.28
2022-08-28T09:37:46.078Z,71.65
2022-08-28T09:40:52.117Z,71.21
2022-08-28T09:43:26.843Z,71.06
2022-08-28T09:45:53.472Z,72.01
2022-08-28T09:48:40.197Z,71.36
2022-08-28T09:51:08.037Z,71.41
2022-08-28T09:53:38.708Z,70.26
2022-08-28T09:56:18.522Z,70.44
2022-08-28T09:58:48.628Z,70.85
2022-08-28T10:01:34.015Z,70.69
2022-08-28T10:04:25.340Z,70.83
2022-08-28T10:07:10.406Z,71.07
2022-08-28T10:10:13.998Z,70.34
2022-08-28T10:12:54.138Z,70.10
2022-08-28T10:15:43.136Z,70.18
2022-08-28T10:18:34.780Z,70.08
2022-08-28T10:21:13.089Z,69.97
2022-08-28T10:24:09.697Z,70.22
2022-08-28T10:27:03.708Z,69.46
2022-08-28T10:29:49.545Z,69.04
2022-08-28T10:32:25.165Z,69.53
2022-08-28T10:34:52.921Z,69.16
2022-08-28T10:37:44.988Z,69.06
2022-08-28T10:40:21.157Z,68.74
2022-08-28T10:42:53.591Z,69.23
2022-08-28T10:45:24.008Z,68.68
2022-08-28T10:47:53.353Z,68.69
2022-08-28T10:50:27.262Z,68.83
2022-08-28T10:53:10.243Z,69.08
2022-08-28T10:55:54.009Z,68.53
2022-08-28T10:58:24.424Z,68.30
2022-08-28T11:00:57.643Z,68.52
2022-08-28T11:03:41.037Z,68.54
2022-08-28T11:06:20.623Z,68.50
2022-08-28T11:08:52.199Z,68.67
2022-08-28T11:11:49.214Z,68.23
2022-08-28T11:14:23.536Z,68.33
2022-08-28T11:16:50.534Z,68.50
2022-08-28T11:19:44.542Z,67.91
2022-08-28T11:22:23.384Z,67.56
2022-08-28T11:24:55.976Z,67.63
2022-08-28T11:27:33.780Z,67.49
2022-08-28T11:30:09.438Z,67.88
2022-08-28T11:32:59.454Z,67.84
2022-08-28T11:35:44.367Z,68.54
2022-08-28T11:38:11.904Z,68.16
2022-08-28T11:40:40.669Z,67.74
2022-08-28T11:43:16.961Z,68.06
2022-08-28T11:45:46.791Z,68.07
2022-08-28T11:48:23.403Z,68.23
2022-08-28T11:50:55.782Z,68.16
2022-08-28T11:53:33.269Z,68.31
2022-08-28T11:56:31.830Z,68.41
2022-08-28T11:59:13.771Z,68.33
2022-08-28T12:01:40.966Z,67.91
2022-08-28T12:04:08.631Z,68.18
2022-08-28T12:06:44.508Z,68.94
2022-08-28T12:09:13.555Z,68.74
2022-08-28T12:11:42.128Z,67.83
2022-08-28T12:14:33.328Z,68.33
2022-08-28T12:17:00.097Z,68.62
2022-08-28T12:19:36.521Z,68.60
2022-08-28T12:22:17.285Z,68.74
2022-08-28T12:24:51.277Z,68.84
2022-08-28T12:27:18.124Z,68.79
2022-08-28T12:29:54.767Z,68.09
2022-08-28T12:32:50.458Z,68.12
2022-08-28T12:35:24.340Z,68.22
2022-08-28T12:37:54.256Z,67.52
2022-08-28T12:40:21.103Z,67.29
2022-08-28T12:42:57.235Z,67.88
2022-08-28T12:45:36.275Z,67.50
2022-08-28T12:48:13.398Z,68.08
2022-08-28T12:50:40.106Z,67.87
2022-08-28T12:53:13.446Z,67.61
2022-08-28T12:55:40.844Z,66.68
2022-08-28T12:58:27.018Z,66.35
2022-08-28T13:00:57.500Z,66.29
2022-08-28T13:03:24.508Z,66.12
2022-08-28T13:06:07.628Z,66.22
2022-08-28T13:08:34.870Z,66.37
2022-08-28T13:11:01.657Z,66.63
2022-08-28T13:13:34.132Z,66.60
2022-08-28T13:16:09.022Z,66.68
2022-08-28T13:18:42.424Z,67.16
2022-08-28T13:21:15.153Z,67.17
2022-08-28T13:23:42.454Z,66.78
2022-08-28T13:26:10.906Z,67.07
2022-08-28T13:28:40.073Z,66.51
2022-08-28T13:31:07.176Z,66.50
2022-08-28T13:33:34.049Z,66.33
2022-08-28T13:36:19.944Z,66.39
2022-08-28T13:38:46.808Z,65.72
2022-08-28T13:41:13.525Z,66.09
2022-08-28T13:43:45.713Z,66.45
2022-08-28T13:46:13.021Z,65.85
2022-08-28T13:48:39.994Z,66.11
2022-08-28T13:51:10.795Z,66.76
2022-08-28T13:53:39.257Z,66.79
2022-08-28T13:56:06.566Z,66.21
2022-08-28T13:58:33.408Z,66.86
2022-08-28T14:01:00.432Z,66.23
2022-08-28T14:03:36.484Z,66.67
2022-08-28T14:06:14.540Z,66.53
2022-08-28T14:08:43.619Z,66.25
2022-08-28T14:11:12.679Z,66.71
2022-08-28T14:13:47.392Z,66.39
2022-08-28T14:16:23.724Z,65.86
2022-08-28T14:18:52.776Z,65.89
2022-08-28T14:21:19.731Z,65.99
2022-08-28T14:23:46.731Z,66.12
2022-08-28T14:26:13.407Z,66.80
2022-08-28T14:28:40.015Z,66.44
2022-08-28T14:31:10.008Z,66.70
2022-08-28T14:33:39.161Z,66.35
2022-08-28T14:36:08.420Z,66.59
2022-08-28T14:38:35.759Z,66.11
2022-08-28T14:41:02.923Z,65.69
2022-08-28T14:43:30.433Z,65.79
2022-08-28T14:45:57.211Z,65.71
2022-08-28T14:48:23.932Z,65.22
2022-08-28T14:50:50.665Z,65.50
2022-08-28T14:53:17.438Z,65.13
2022-08-28T14:55:49.798Z,65.38
2022-08-28T14:58:19.537Z,65.44
2022-08-28T15:00:49.529Z,64.27
2022-08-28T15:03:18.522Z,64.32
2022-08-28T15:05:45.165Z,64.00
2022-08-28T15:08:14.597Z,64.15
2022-08-28T15:10:42.327Z,64.26
2022-08-28T15:13:10.373Z,64.30
2022-08-28T15:15:39.601Z,64.28
2022-08-28T15:18:07.390Z,63.73
2022-08-28T15:20:40.608Z,64.26
2022-08-28T15:23:07.496Z,63.30
2022-08-28T15:25:34.147Z,63.65
2022-08-28T15:28:00.833Z,63.82
2022-08-28T15:30:27.533Z,64.41
2022-08-28T15:32:54.317Z,64.55
2022-08-28T15:35:21.005Z,64.93
2022-08-28T15:37:47.903Z,64.86
2022-08-28T15:40:33.266Z,65.16
2022-08-28T15:43:00.232Z,64.95
2022-08-28T15:45:27.112Z,64.49
2022-08-28T15:47:54.272Z,64.25
2022-08-28T15:50:21.062Z,64.30
2022-08-28T15:52:48.032Z,64.59
2022-08-28T15:55:14.694Z,64.20
2022-08-28T15:57:41.453Z,65.22
2022-08-28T16:00:10.483Z,64.98
2022-08-28T16:02:37.555Z,64.93
2022-08-28T16:05:04.796Z,65.02
2022-08-28T16:07:31.495Z,65.20
2022-08-28T16:09:58.137Z,65.53
2022-08-28T16:12:25.566Z,65.57
2022-08-28T16:14:52.291Z,65.43
2022-08-28T16:17:19.080Z,65.92
2022-08-28T16:19:46.777Z,65.42
2022-08-28T16:22:16.117Z,65.74
2022-08-28T16:24:43.407Z,65.62
2022-08-28T16:27:13.208Z,65.03
2022-08-28T16:29:42.911Z,65.43
2022-08-28T16:32:09.658Z,66.08
2022-08-28T16:34:39.114Z,65.91
2022-08-28T16:37:06.190Z,65.82
2022-08-28T16:39:35.360Z,65.88
2022-08-28T16:42:02.263Z,66.00
2022-08-28T16:44:29.187Z,66.33
2022-08-28T16:46:56.320Z,66.18
2022-08-28T16:49:23.782Z,65.92
2022-08-28T16:51:50.641Z,66.08
2022-08-28T16:54:21.524Z,66.19
2022-08-28T16:56:48.227Z,66.44
2022-08-28T16:59:20.460Z,66.41
2022-08-28T17:01:53.030Z,66.63
2022-08-28T17:04:22.935Z,66.38
2022-08-28T17:06:49.895Z,66.59
2022-08-28T17:09:16.701Z,66.55
2022-08-28T17:11:52.038Z,66.53
2022-08-28T17:14:19.979Z,66.52
2022-08-28T17:16:46.765Z,67.18
2022-08-28T17:19:14.120Z,66.63
2022-08-28T17:21:59.351Z,67.02
2022-08-28T17:24:26.052Z,67.05
2022-08-28T17:26:52.725Z,67.09
2022-08-28T17:29:19.375Z,67.49
2022-08-28T17:31:46.276Z,68.07
2022-08-28T17:34:13.305Z,67.97
2022-08-28T17:36:42.349Z,67.65
2022-08-28T17:39:13.233Z,67.93
2022-08-28T17:41:39.986Z,67.76
2022-08-28T17:44:07.328Z,67.83
2022-08-28T17:46:37.699Z,68.44
2022-08-28T17:49:06.562Z,68.73
2022-08-28T17:51:43.677Z,68.81
2022-08-28T17:54:15.572Z,68.76
2022-08-28T17:56:42.506Z,69.21
2022-08-28T17:59:10.500Z,69.25
2022-08-28T18:01:38.657Z,69.12
2022-08-28T18:04:05.685Z,69.24
2022-08-28T18:06:32.580Z,69.24
2022-08-28T18:08:59.281Z,68.84
2022-08-28T18:11:26.258Z,68.95
2022-08-28T18:13:52.880Z,68.65
2022-08-28T18:16:20.119Z,68.56
2022-08-28T18:18:46.965Z,69.02
2022-08-28T18:21:14.298Z,68.82
2022-08-28T18:23:41.441Z,68.98
2022-08-28T18:26:08.636Z,69.22
2022-08-28T18:28:35.498Z,68.96
2022-08-28T18:31:02.766Z,68.87
2022-08-28T18:33:29.750Z,68.93
2022-08-28T18:35:56.888Z,69.35
2022-08-28T18:38:28.077Z,69.08
2022-08-28T18:40:55.466Z,69.64
2022-08-28T18:43:22.546Z,69.64
2022-08-28T18:45:49.540Z,70.18
2022-08-28T18:48:16.456Z,69.82
2022-08-28T18:50:46.269Z,70.16
2022-08-28T18:53:14.664Z,70.01
2022-08-28T18:55:41.362Z,69.68
2022-08-28T18:58:08.029Z,69.67
2022-08-28T19:00:38.236Z,69.26
2022-08-28T19:03:06.134Z,70.14
2022-08-28T19:05:33.700Z,70.11
2022-08-28T19:08:00.423Z,70.13
2022-08-28T19:10:34.146Z,69.97
2022-08-28T19:13:01.667Z,70.23
2022-08-28T19:15:29.061Z,70.33
2022-08-28T19:17:55.888Z,70.05
2022-08-28T19:20:22.642Z,69.72
2022-08-28T19:22:49.349Z,69.90
2022-08-28T19:25:27.907Z,69.55
2022-08-28T19:27:59.469Z,69.24
2022-08-28T19:30:28.084Z,69.84
2022-08-28T19:32:55.057Z,69.78
2022-08-28T19:35:24.337Z,69.16
2022-08-28T19:37:52.186Z,69.52
2022-08-28T19:40:20.646Z,69.55
2022-08-28T19:42:47.790Z,68.87
2022-08-28T19:45:15.161Z,69.11
2022-08-28T19:47:42.062Z,69.08
2022-08-28T19:50:10.422Z,68.56
2022-08-28T19:52:37.121Z,69.07
2022-08-28T19:55:05.710Z,69.39
2022-08-28T19:57:33.083Z,68.81
2022-08-28T20:00:00.214Z,69.02
2022-08-28T20:02:28.513Z,68.71
2022-08-28T20:04:55.556Z,68.67
2022-08-28T20:07:22.821Z,69.11
2022-08-28T20:09:49.472Z,69.33
2022-08-28T20:12:16.113Z,69.11
2022-08-28T20:14:44.807Z,69.05
2022-08-28T20:17:11.678Z,69.15
2022-08-28T20:19:38.755Z,69.08
2022-08-28T20:22:05.441Z,69.57
2022-08-28T20:24:32.106Z,68.90
2022-08-28T20:26:58.744Z,68.95
2022-08-28T20:29:25.529Z,68.49
2022-08-28T20:31:53.154Z,69.16
2022-08-28T20:34:20.535Z,68.77
2022-08-28T20:36:47.790Z,68.52
2022-08-28T20:39:15.515Z,68.78
2022-08-28T20:41:42.851Z,68.41
2022-08-28T20:44:12.861Z,68.33
2022-08-28T20:46:41.629Z,68.57
2022-08-28T20:49:12.619Z,68.46
2022-08-28T20:52:00.988Z,68.10
2022-08-28T20:54:30.262Z,68.72
2022-08-28T20:56:59.928Z,68.12
2022-08-28T20:59:29.683Z,68.34
2022-08-28T21:02:08.672Z,67.97
2022-08-28T21:04:36.803Z,67.85
2022-08-28T21:07:05.881Z,68.26
2022-08-28T21:09:33.475Z,67.82
2022-08-28T21:12:19.916Z,67.94
2022-08-28T21:14:51.565Z,68.43
2022-08-28T21:17:29.991Z,68.21
2022-08-28T21:20:09.265Z,68.35
2022-08-28T21:22:37.387Z,68.05
2022-08-28T21:25:09.230Z,68.27
2022-08-28T21:27:36.692Z,67.71
2022-08-28T21:30:04.436Z,68.33
2022-08-28T21:32:32.712Z,67.68
2022-08-28T21:35:00.713Z,67.87
2022-08-28T21:37:27.363Z,67.57
2022-08-28T21:39:56.519Z,67.53
2022-08-28T21:42:23.640Z,67.33
2022-08-28T21:44:51.946Z,67.48
2022-08-28T21:47:21.464Z,67.59
2022-08-28T21:49:50.133Z,66.80
2022-08-28T21:52:18.445Z,67.01
2022-08-28T21:54:45.258Z,66.85
2022-08-28T21:57:11.986Z,66.48
2022-08-28T21:59:39.005Z,66.82
2022-08-28T22:02:05.830Z,66.67
2022-08-28T22:04:32.653Z,66.56
2022-08-28T22:06:59.275Z,66.57
2022-08-28T22:09:25.902Z,66.51
2022-08-28T22:11:52.583Z,66.44
2022-08-28T22:14:19.243Z,65.70
2022-08-28T22:16:46.529Z,65.87
2022-08-28T22:19:13.212Z,65.77
2022-08-28T22:21:58.339Z,66.33
2022-08-28T22:24:24.982Z,66.17
2022-08-28T22:26:57.390Z,65.94
2022-08-28T22:29:24.682Z,66.18
2022-08-28T22:31:51.364Z,65.99
2022-08-28T22:34:18.254Z,66.07
2022-08-28T22:36:44.920Z,65.30
2022-08-28T22:39:11.551Z,64.95
2022-08-28T22:41:38.701Z,65.54
2022-08-28T22:44:05.457Z,64.92
2022-08-28T22:46:32.092Z,64.97
2022-08-28T22:48:59.298Z,65.02
2022-08-28T22:51:26.030Z,64.72
2022-08-28T22:53:52.737Z,64.70
2022-08-28T22:56:19.510Z,64.78
2022-08-28T22:58:46.413Z,64.67
2022-08-28T23:01:17.641Z,64.76
2022-08-28T23:03:45.065Z,63.54
2022-08-28T23:06:12.459Z,64.02
2022-08-28T23:08:39.104Z,64.45
2022-08-28T23:11:06.104Z,63.78
2022-08-28T23:13:33.044Z,63.52
2022-08-28T23:16:00.028Z,63.49
2022-08-28T23:18:26.719Z,63.63
2022-08-28T23:20:55.285Z,63.41
2022-08-28T23:23:24.046Z,63.35
2022-08-28T23:25:51.195Z,62.85
2022-08-28T23:28:18.831Z,62.92
2022-08-28T23:30:48.510Z,63.01
2022-08-28T23:33:24.056Z,62.89
2022-08-28T23:35:51.695Z,63.57
2022-08-28T23:38:18.567Z,63.12
2022-08-28T23:40:46.247Z,62.44
2022-08-28T23:43:12.874Z,63.32
2022-08-28T23:45:41.721Z,63.47
2022-08-28T23:48:08.681Z,63.40
2022-08-28T23:50:35.695Z,63.11
2022-08-28T23:53:04.105Z,63.42
2022-08-28T23:55:31.054Z,63.14
2022-08-28T23:58:00.172Z,62.75
